sensor_id;sensor_type;location;lat;lon;timestamp;P1;durP1;ratioP1;P2;durP2;ratioP2
35522;SDS011;61478;50.820;4.330;2022-07-01T00:01:58;10.43;;;4.53;;
35522;SDS011;61478;50.820;4.330;2022-07-01T00:04:24;8.25;;;4.72;;
35522;SDS011;61478;50.820;4.330;2022-07-01T00:06:52;10.77;;;5.80;;
35522;SDS011;61478;50.820;4.330;2022-07-01T00:09:19;7.97;;;5.30;;
35522;SDS011;61478;50.820;4.330;2022-07-01T00:11:45;12.65;;;5.47;;
35522;SDS011;61478;50.820;4.330;2022-07-01T00:14:11;9.95;;;5.22;;
35522;SDS011;61478;50.820;4.330;2022-07-01T00:16:38;10.35;;;5.45;;
35522;SDS011;61478;50.820;4.330;2022-07-01T00:19:03;13.30;;;5.60;;
35522;SDS011;61478;50.820;4.330;2022-07-01T00:21:30;13.07;;;5.85;;
35522;SDS011;61478;50.820;4.330;2022-07-01T00:23:56;8.85;;;5.05;;
35522;SDS011;61478;50.820;4.330;2022-07-01T00:26:22;9.25;;;5.65;;
35522;SDS011;61478;50.820;4.330;2022-07-01T00:28:48;10.93;;;5.45;;
35522;SDS011;61478;50.820;4.330;2022-07-01T00:31:14;9.38;;;5.18;;
35522;SDS011;61478;50.820;4.330;2022-07-01T00:33:40;8.40;;;5.32;;
35522;SDS011;61478;50.820;4.330;2022-07-01T00:36:06;8.50;;;5.03;;
35522;SDS011;61478;50.820;4.330;2022-07-01T00:38:32;16.60;;;6.75;;
35522;SDS011;61478;50.820;4.330;2022-07-01T00:40:58;11.45;;;6.55;;
35522;SDS011;61478;50.820;4.330;2022-07-01T00:43:24;9.80;;;5.43;;
35522;SDS011;61478;50.820;4.330;2022-07-01T00:45:50;11.50;;;6.20;;
35522;SDS011;61478;50.820;4.330;2022-07-01T00:48:18;13.48;;;6.90;;
35522;SDS011;61478;50.820;4.330;2022-07-01T00:50:46;14.80;;;7.68;;
35522;SDS011;61478;50.820;4.330;2022-07-01T00:53:12;14.02;;;7.13;;
35522;SDS011;61478;50.820;4.330;2022-07-01T00:55:40;20.52;;;7.38;;
35522;SDS011;61478;50.820;4.330;2022-07-01T00:58:07;17.63;;;7.60;;
35522;SDS011;61478;50.820;4.330;2022-07-01T01:00:34;10.65;;;7.80;;
35522;SDS011;61478;50.820;4.330;2022-07-01T01:03:01;12.32;;;7.80;;
35522;SDS011;61478;50.820;4.330;2022-07-01T01:05:27;13.23;;;7.82;;
35522;SDS011;61478;50.820;4.330;2022-07-01T01:07:53;18.42;;;8.10;;
35522;SDS011;61478;50.820;4.330;2022-07-01T01:10:20;17.02;;;7.72;;
35522;SDS011;61478;50.820;4.330;2022-07-01T01:12:50;22.15;;;7.88;;
35522;SDS011;61478;50.820;4.330;2022-07-01T01:15:18;15.82;;;8.73;;
35522;SDS011;61478;50.820;4.330;2022-07-01T01:17:45;18.83;;;8.57;;
35522;SDS011;61478;50.820;4.330;2022-07-01T01:20:17;18.40;;;8.32;;
35522;SDS011;61478;50.820;4.330;2022-07-01T01:22:44;19.33;;;8.68;;
35522;SDS011;61478;50.820;4.330;2022-07-01T01:25:12;16.27;;;8.63;;
35522;SDS011;61478;50.820;4.330;2022-07-01T01:27:37;17.55;;;8.60;;
35522;SDS011;61478;50.820;4.330;2022-07-01T01:30:04;23.23;;;9.85;;
35522;SDS011;61478;50.820;4.330;2022-07-01T01:32:31;24.48;;;9.68;;
35522;SDS011;61478;50.820;4.330;2022-07-01T01:34:57;16.08;;;8.77;;
35522;SDS011;61478;50.820;4.330;2022-07-01T01:37:23;20.05;;;8.68;;
35522;SDS011;61478;50.820;4.330;2022-07-01T01:39:49;19.30;;;9.00;;
35522;SDS011;61478;50.820;4.330;2022-07-01T01:42:15;19.40;;;9.57;;
35522;SDS011;61478;50.820;4.330;2022-07-01T01:44:41;18.98;;;9.68;;
35522;SDS011;61478;50.820;4.330;2022-07-01T01:47:06;16.50;;;9.00;;
35522;SDS011;61478;50.820;4.330;2022-07-01T01:49:32;28.77;;;10.48;;
35522;SDS011;61478;50.820;4.330;2022-07-01T01:51:59;18.67;;;8.73;;
35522;SDS011;61478;50.820;4.330;2022-07-01T01:54:25;15.55;;;8.45;;
35522;SDS011;61478;50.820;4.330;2022-07-01T01:56:51;23.45;;;10.30;;
35522;SDS011;61478;50.820;4.330;2022-07-01T01:59:17;17.83;;;9.50;;
35522;SDS011;61478;50.820;4.330;2022-07-01T02:01:43;15.05;;;8.95;;
35522;SDS011;61478;50.820;4.330;2022-07-01T02:04:09;15.18;;;7.80;;
35522;SDS011;61478;50.820;4.330;2022-07-01T02:06:35;13.77;;;8.55;;
35522;SDS011;61478;50.820;4.330;2022-07-01T02:09:01;21.30;;;8.75;;
35522;SDS011;61478;50.820;4.330;2022-07-01T02:11:27;18.60;;;7.60;;
35522;SDS011;61478;50.820;4.330;2022-07-01T02:13:54;18.20;;;8.57;;
35522;SDS011;61478;50.820;4.330;2022-07-01T02:16:19;19.50;;;8.35;;
35522;SDS011;61478;50.820;4.330;2022-07-01T02:18:45;22.23;;;7.95;;
35522;SDS011;61478;50.820;4.330;2022-07-01T02:21:11;18.15;;;7.63;;
35522;SDS011;61478;50.820;4.330;2022-07-01T02:23:37;23.48;;;8.45;;
35522;SDS011;61478;50.820;4.330;2022-07-01T02:26:03;16.70;;;7.97;;
35522;SDS011;61478;50.820;4.330;2022-07-01T02:28:29;15.60;;;7.32;;
35522;SDS011;61478;50.820;4.330;2022-07-01T02:30:55;19.52;;;7.97;;
35522;SDS011;61478;50.820;4.330;2022-07-01T02:33:21;18.42;;;7.28;;
35522;SDS011;61478;50.820;4.330;2022-07-01T02:35:47;20.40;;;8.10;;
35522;SDS011;61478;50.820;4.330;2022-07-01T02:38:13;25.23;;;8.45;;
35522;SDS011;61478;50.820;4.330;2022-07-01T02:40:39;14.18;;;7.65;;
35522;SDS011;61478;50.820;4.330;2022-07-01T02:43:06;19.00;;;7.60;;
35522;SDS011;61478;50.820;4.330;2022-07-01T02:45:32;15.80;;;8.13;;
35522;SDS011;61478;50.820;4.330;2022-07-01T02:47:58;21.00;;;7.80;;
35522;SDS011;61478;50.820;4.330;2022-07-01T02:50:26;24.02;;;7.43;;
35522;SDS011;61478;50.820;4.330;2022-07-01T02:52:53;17.38;;;7.38;;
35522;SDS011;61478;50.820;4.330;2022-07-01T02:55:19;12.80;;;7.03;;
35522;SDS011;61478;50.820;4.330;2022-07-01T02:57:45;20.85;;;7.22;;
35522;SDS011;61478;50.820;4.330;2022-07-01T03:00:12;20.58;;;6.88;;
35522;SDS011;61478;50.820;4.330;2022-07-01T03:02:39;23.50;;;7.47;;
35522;SDS011;61478;50.820;4.330;2022-07-01T03:05:06;18.90;;;7.43;;
35522;SDS011;61478;50.820;4.330;2022-07-01T03:07:32;16.80;;;7.53;;
35522;SDS011;61478;50.820;4.330;2022-07-01T03:10:00;18.42;;;6.80;;
35522;SDS011;61478;50.820;4.330;2022-07-01T03:12:26;20.98;;;7.07;;
35522;SDS011;61478;50.820;4.330;2022-07-01T03:14:59;14.00;;;5.80;;
35522;SDS011;61478;50.820;4.330;2022-07-01T03:17:26;19.98;;;7.03;;
35522;SDS011;61478;50.820;4.330;2022-07-01T03:19:53;14.88;;;6.70;;
35522;SDS011;61478;50.820;4.330;2022-07-01T03:22:20;17.40;;;5.97;;
35522;SDS011;61478;50.820;4.330;2022-07-01T03:24:48;20.67;;;6.03;;
35522;SDS011;61478;50.820;4.330;2022-07-01T03:27:15;17.30;;;6.13;;
35522;SDS011;61478;50.820;4.330;2022-07-01T03:29:43;13.60;;;5.47;;
35522;SDS011;61478;50.820;4.330;2022-07-01T03:32:09;14.60;;;5.60;;
35522;SDS011;61478;50.820;4.330;2022-07-01T03:34:39;15.60;;;6.20;;
35522;SDS011;61478;50.820;4.330;2022-07-01T03:37:06;19.13;;;4.93;;
35522;SDS011;61478;50.820;4.330;2022-07-01T03:39:34;9.05;;;4.30;;
35522;SDS011;61478;50.820;4.330;2022-07-01T03:42:01;10.32;;;4.70;;
35522;SDS011;61478;50.820;4.330;2022-07-01T03:44:28;18.25;;;4.70;;
35522;SDS011;61478;50.820;4.330;2022-07-01T03:46:54;18.25;;;5.20;;
35522;SDS011;61478;50.820;4.330;2022-07-01T03:49:20;11.82;;;4.60;;
35522;SDS011;61478;50.820;4.330;2022-07-01T03:51:47;14.93;;;5.63;;
35522;SDS011;61478;50.820;4.330;2022-07-01T03:54:13;9.23;;;4.43;;
35522;SDS011;61478;50.820;4.330;2022-07-01T03:56:57;19.23;;;5.45;;
35522;SDS011;61478;50.820;4.330;2022-07-01T03:59:25;11.82;;;4.75;;
35522;SDS011;61478;50.820;4.330;2022-07-01T04:01:52;8.98;;;5.80;;
35522;SDS011;61478;50.820;4.330;2022-07-01T04:04:18;22.77;;;5.00;;
35522;SDS011;61478;50.820;4.330;2022-07-01T04:06:45;16.33;;;4.53;;
35522;SDS011;61478;50.820;4.330;2022-07-01T04:09:11;10.73;;;4.45;;
35522;SDS011;61478;50.820;4.330;2022-07-01T04:11:39;12.07;;;4.47;;
35522;SDS011;61478;50.820;4.330;2022-07-01T04:14:10;11.95;;;4.28;;
35522;SDS011;61478;50.820;4.330;2022-07-01T04:16:36;18.38;;;4.75;;
35522;SDS011;61478;50.820;4.330;2022-07-01T04:19:02;14.90;;;4.88;;
35522;SDS011;61478;50.820;4.330;2022-07-01T04:21:28;13.25;;;5.00;;
35522;SDS011;61478;50.820;4.330;2022-07-01T04:24:13;16.48;;;4.90;;
35522;SDS011;61478;50.820;4.330;2022-07-01T04:26:39;9.90;;;4.30;;
35522;SDS011;61478;50.820;4.330;2022-07-01T04:29:06;12.27;;;3.92;;
35522;SDS011;61478;50.820;4.330;2022-07-01T04:31:35;13.38;;;4.65;;
35522;SDS011;61478;50.820;4.330;2022-07-01T04:34:02;15.70;;;4.53;;
35522;SDS011;61478;50.820;4.330;2022-07-01T04:36:29;11.32;;;3.95;;
35522;SDS011;61478;50.820;4.330;2022-07-01T04:38:55;11.13;;;4.20;;
35522;SDS011;61478;50.820;4.330;2022-07-01T04:41:21;14.60;;;3.75;;
35522;SDS011;61478;50.820;4.330;2022-07-01T04:44:06;7.63;;;3.63;;
35522;SDS011;61478;50.820;4.330;2022-07-01T04:46:32;10.77;;;3.80;;
35522;SDS011;61478;50.820;4.330;2022-07-01T04:48:58;14.35;;;3.75;;
35522;SDS011;61478;50.820;4.330;2022-07-01T04:51:24;17.52;;;3.47;;
35522;SDS011;61478;50.820;4.330;2022-07-01T04:53:50;23.38;;;4.40;;
35522;SDS011;61478;50.820;4.330;2022-07-01T04:56:16;15.95;;;3.97;;
35522;SDS011;61478;50.820;4.330;2022-07-01T04:58:42;8.43;;;3.15;;
35522;SDS011;61478;50.820;4.330;2022-07-01T05:01:08;9.30;;;3.83;;
35522;SDS011;61478;50.820;4.330;2022-07-01T05:03:34;13.50;;;3.20;;
35522;SDS011;61478;50.820;4.330;2022-07-01T05:06:00;14.20;;;3.85;;
35522;SDS011;61478;50.820;4.330;2022-07-01T05:08:26;13.63;;;3.50;;
35522;SDS011;61478;50.820;4.330;2022-07-01T05:10:52;14.35;;;4.07;;
35522;SDS011;61478;50.820;4.330;2022-07-01T05:13:18;11.25;;;3.70;;
35522;SDS011;61478;50.820;4.330;2022-07-01T05:15:45;7.13;;;3.80;;
35522;SDS011;61478;50.820;4.330;2022-07-01T05:18:10;16.75;;;3.60;;
35522;SDS011;61478;50.820;4.330;2022-07-01T05:20:55;14.93;;;3.50;;
35522;SDS011;61478;50.820;4.330;2022-07-01T05:23:39;13.68;;;3.60;;
35522;SDS011;61478;50.820;4.330;2022-07-01T05:26:06;13.13;;;3.20;;
35522;SDS011;61478;50.820;4.330;2022-07-01T05:28:32;15.35;;;3.70;;
35522;SDS011;61478;50.820;4.330;2022-07-01T05:30:58;10.13;;;3.60;;
35522;SDS011;61478;50.820;4.330;2022-07-01T05:33:24;18.63;;;3.90;;
35522;SDS011;61478;50.820;4.330;2022-07-01T05:35:53;13.52;;;3.90;;
35522;SDS011;61478;50.820;4.330;2022-07-01T05:38:19;11.60;;;3.30;;
35522;SDS011;61478;50.820;4.330;2022-07-01T05:40:45;8.13;;;3.15;;
35522;SDS011;61478;50.820;4.330;2022-07-01T05:43:11;10.68;;;4.05;;
35522;SDS011;61478;50.820;4.330;2022-07-01T05:45:37;12.88;;;4.90;;
35522;SDS011;61478;50.820;4.330;2022-07-01T05:48:03;12.65;;;3.65;;
35522;SDS011;61478;50.820;4.330;2022-07-01T05:50:29;11.20;;;4.18;;
35522;SDS011;61478;50.820;4.330;2022-07-01T05:52:55;11.35;;;4.30;;
35522;SDS011;61478;50.820;4.330;2022-07-01T05:55:21;21.88;;;5.13;;
35522;SDS011;61478;50.820;4.330;2022-07-01T05:57:47;10.13;;;3.90;;
35522;SDS011;61478;50.820;4.330;2022-07-01T06:00:13;14.77;;;4.53;;
35522;SDS011;61478;50.820;4.330;2022-07-01T06:02:39;10.65;;;4.25;;
35522;SDS011;61478;50.820;4.330;2022-07-01T06:05:05;14.25;;;4.03;;
35522;SDS011;61478;50.820;4.330;2022-07-01T06:07:31;11.63;;;4.65;;
35522;SDS011;61478;50.820;4.330;2022-07-01T06:09:57;8.50;;;3.88;;
35522;SDS011;61478;50.820;4.330;2022-07-01T06:12:23;11.48;;;3.88;;
35522;SDS011;61478;50.820;4.330;2022-07-01T06:14:49;17.58;;;4.55;;
35522;SDS011;61478;50.820;4.330;2022-07-01T06:17:15;17.83;;;4.53;;
35522;SDS011;61478;50.820;4.330;2022-07-01T06:19:41;18.90;;;4.65;;
35522;SDS011;61478;50.820;4.330;2022-07-01T06:22:07;16.27;;;4.22;;
35522;SDS011;61478;50.820;4.330;2022-07-01T06:24:34;14.50;;;4.50;;
35522;SDS011;61478;50.820;4.330;2022-07-01T06:27:00;14.02;;;4.15;;
35522;SDS011;61478;50.820;4.330;2022-07-01T06:29:26;17.40;;;5.00;;
35522;SDS011;61478;50.820;4.330;2022-07-01T06:31:52;16.95;;;5.53;;
35522;SDS011;61478;50.820;4.330;2022-07-01T06:34:19;16.73;;;5.45;;
35522;SDS011;61478;50.820;4.330;2022-07-01T06:36:45;11.98;;;4.43;;
35522;SDS011;61478;50.820;4.330;2022-07-01T06:39:11;14.20;;;4.97;;
35522;SDS011;61478;50.820;4.330;2022-07-01T06:41:37;19.23;;;4.80;;
35522;SDS011;61478;50.820;4.330;2022-07-01T06:44:03;16.17;;;4.22;;
35522;SDS011;61478;50.820;4.330;2022-07-01T06:46:33;18.02;;;4.65;;
35522;SDS011;61478;50.820;4.330;2022-07-01T06:48:59;18.95;;;4.38;;
35522;SDS011;61478;50.820;4.330;2022-07-01T06:51:25;10.80;;;4.50;;
35522;SDS011;61478;50.820;4.330;2022-07-01T06:53:52;12.77;;;3.70;;
35522;SDS011;61478;50.820;4.330;2022-07-01T06:56:18;15.88;;;3.30;;
35522;SDS011;61478;50.820;4.330;2022-07-01T06:58:44;12.32;;;4.00;;
35522;SDS011;61478;50.820;4.330;2022-07-01T07:01:10;14.00;;;3.40;;
35522;SDS011;61478;50.820;4.330;2022-07-01T07:03:36;13.73;;;3.35;;
35522;SDS011;61478;50.820;4.330;2022-07-01T07:06:02;10.55;;;3.42;;
35522;SDS011;61478;50.820;4.330;2022-07-01T07:08:29;11.43;;;2.83;;
35522;SDS011;61478;50.820;4.330;2022-07-01T07:10:56;11.75;;;3.25;;
35522;SDS011;61478;50.820;4.330;2022-07-01T07:13:23;9.55;;;2.83;;
35522;SDS011;61478;50.820;4.330;2022-07-01T07:15:49;11.93;;;2.80;;
35522;SDS011;61478;50.820;4.330;2022-07-01T07:18:15;8.43;;;2.40;;
35522;SDS011;61478;50.820;4.330;2022-07-01T07:20:40;10.75;;;2.40;;
35522;SDS011;61478;50.820;4.330;2022-07-01T07:23:06;13.05;;;2.05;;
35522;SDS011;61478;50.820;4.330;2022-07-01T07:25:32;10.20;;;2.00;;
35522;SDS011;61478;50.820;4.330;2022-07-01T07:27:58;10.75;;;2.60;;
35522;SDS011;61478;50.820;4.330;2022-07-01T07:30:24;14.10;;;2.35;;
35522;SDS011;61478;50.820;4.330;2022-07-01T07:32:50;8.38;;;1.90;;
35522;SDS011;61478;50.820;4.330;2022-07-01T07:35:16;8.73;;;1.73;;
35522;SDS011;61478;50.820;4.330;2022-07-01T07:37:42;19.52;;;3.30;;
35522;SDS011;61478;50.820;4.330;2022-07-01T07:40:09;11.40;;;2.80;;
35522;SDS011;61478;50.820;4.330;2022-07-01T07:42:37;13.52;;;2.65;;
35522;SDS011;61478;50.820;4.330;2022-07-01T07:45:04;10.40;;;2.63;;
35522;SDS011;61478;50.820;4.330;2022-07-01T07:47:36;6.20;;;2.20;;
35522;SDS011;61478;50.820;4.330;2022-07-01T07:50:03;10.02;;;2.70;;
35522;SDS011;61478;50.820;4.330;2022-07-01T07:52:29;8.80;;;2.13;;
35522;SDS011;61478;50.820;4.330;2022-07-01T07:54:56;9.25;;;1.77;;
35522;SDS011;61478;50.820;4.330;2022-07-01T07:57:22;9.23;;;1.73;;
35522;SDS011;61478;50.820;4.330;2022-07-01T07:59:47;15.13;;;2.40;;
35522;SDS011;61478;50.820;4.330;2022-07-01T08:02:13;19.10;;;2.38;;
35522;SDS011;61478;50.820;4.330;2022-07-01T08:04:39;10.80;;;1.60;;
35522;SDS011;61478;50.820;4.330;2022-07-01T08:07:05;6.68;;;1.70;;
35522;SDS011;61478;50.820;4.330;2022-07-01T08:09:31;14.18;;;2.33;;
35522;SDS011;61478;50.820;4.330;2022-07-01T08:11:59;11.20;;;1.58;;
35522;SDS011;61478;50.820;4.330;2022-07-01T08:14:29;7.72;;;2.20;;
35522;SDS011;61478;50.820;4.330;2022-07-01T08:16:55;12.65;;;1.90;;
35522;SDS011;61478;50.820;4.330;2022-07-01T08:19:21;18.27;;;2.10;;
35522;SDS011;61478;50.820;4.330;2022-07-01T08:21:47;9.50;;;2.15;;
35522;SDS011;61478;50.820;4.330;2022-07-01T08:24:13;7.03;;;1.85;;
35522;SDS011;61478;50.820;4.330;2022-07-01T08:26:38;7.80;;;1.70;;
35522;SDS011;61478;50.820;4.330;2022-07-01T08:29:04;6.88;;;2.17;;
35522;SDS011;61478;50.820;4.330;2022-07-01T08:31:30;7.15;;;2.20;;
35522;SDS011;61478;50.820;4.330;2022-07-01T08:33:57;7.50;;;1.67;;
35522;SDS011;61478;50.820;4.330;2022-07-01T08:36:23;8.88;;;2.28;;
35522;SDS011;61478;50.820;4.330;2022-07-01T08:38:49;11.95;;;2.60;;
35522;SDS011;61478;50.820;4.330;2022-07-01T08:41:15;13.77;;;2.35;;
35522;SDS011;61478;50.820;4.330;2022-07-01T08:43:42;9.63;;;1.77;;
35522;SDS011;61478;50.820;4.330;2022-07-01T08:46:08;12.18;;;2.95;;
35522;SDS011;61478;50.820;4.330;2022-07-01T08:48:34;16.25;;;2.70;;
35522;SDS011;61478;50.820;4.330;2022-07-01T08:51:00;6.90;;;1.77;;
35522;SDS011;61478;50.820;4.330;2022-07-01T08:53:31;13.85;;;2.38;;
35522;SDS011;61478;50.820;4.330;2022-07-01T08:55:57;6.60;;;1.33;;
35522;SDS011;61478;50.820;4.330;2022-07-01T08:58:41;5.40;;;2.63;;
35522;SDS011;61478;50.820;4.330;2022-07-01T09:03:46;9.50;;;1.70;;
35522;SDS011;61478;50.820;4.330;2022-07-01T09:06:20;8.60;;;2.28;;
35522;SDS011;61478;50.820;4.330;2022-07-01T09:08:47;8.35;;;1.33;;
35522;SDS011;61478;50.820;4.330;2022-07-01T09:11:21;9.77;;;1.95;;
35522;SDS011;61478;50.820;4.330;2022-07-01T09:14:10;6.57;;;1.92;;
35522;SDS011;61478;50.820;4.330;2022-07-01T09:16:39;10.43;;;2.00;;
35522;SDS011;61478;50.820;4.330;2022-07-01T09:19:14;9.70;;;1.25;;
35522;SDS011;61478;50.820;4.330;2022-07-01T09:21:41;9.45;;;2.25;;
35522;SDS011;61478;50.820;4.330;2022-07-01T09:26:58;9.35;;;1.77;;
35522;SDS011;61478;50.820;4.330;2022-07-01T09:29:27;9.38;;;1.60;;
35522;SDS011;61478;50.820;4.330;2022-07-01T09:31:57;7.35;;;2.13;;
35522;SDS011;61478;50.820;4.330;2022-07-01T09:34:24;8.32;;;1.55;;
35522;SDS011;61478;50.820;4.330;2022-07-01T09:36:54;8.77;;;2.03;;
35522;SDS011;61478;50.820;4.330;2022-07-01T09:39:21;7.63;;;1.80;;
35522;SDS011;61478;50.820;4.330;2022-07-01T09:41:47;8.40;;;1.33;;
35522;SDS011;61478;50.820;4.330;2022-07-01T09:44:13;9.70;;;2.08;;
35522;SDS011;61478;50.820;4.330;2022-07-01T09:46:51;9.68;;;2.55;;
35522;SDS011;61478;50.820;4.330;2022-07-01T09:49:18;9.77;;;2.25;;
35522;SDS011;61478;50.820;4.330;2022-07-01T09:51:44;9.35;;;3.10;;
35522;SDS011;61478;50.820;4.330;2022-07-01T09:54:11;6.10;;;1.85;;
35522;SDS011;61478;50.820;4.330;2022-07-01T09:56:37;6.38;;;2.25;;
35522;SDS011;61478;50.820;4.330;2022-07-01T09:59:03;6.75;;;2.70;;
35522;SDS011;61478;50.820;4.330;2022-07-01T10:01:30;12.73;;;2.92;;
35522;SDS011;61478;50.820;4.330;2022-07-01T10:03:57;9.10;;;1.85;;
35522;SDS011;61478;50.820;4.330;2022-07-01T10:14:27;8.23;;;1.17;;
35522;SDS011;61478;50.820;4.330;2022-07-01T10:16:56;5.93;;;1.83;;
35522;SDS011;61478;50.820;4.330;2022-07-01T10:19:29;5.10;;;1.52;;
35522;SDS011;61478;50.820;4.330;2022-07-01T10:21:58;6.32;;;1.30;;
35522;SDS011;61478;50.820;4.330;2022-07-01T10:24:45;7.85;;;3.13;;
35522;SDS011;61478;50.820;4.330;2022-07-01T10:27:22;5.18;;;1.30;;
35522;SDS011;61478;50.820;4.330;2022-07-01T10:30:11;12.65;;;5.75;;
35522;SDS011;61478;50.820;4.330;2022-07-01T10:32:46;14.43;;;6.00;;
35522;SDS011;61478;50.820;4.330;2022-07-01T10:35:13;4.85;;;1.83;;
35522;SDS011;61478;50.820;4.330;2022-07-01T10:37:58;10.07;;;2.72;;
35522;SDS011;61478;50.820;4.330;2022-07-01T10:40:41;6.85;;;3.40;;
35522;SDS011;61478;50.820;4.330;2022-07-01T10:43:11;10.15;;;2.35;;
35522;SDS011;61478;50.820;4.330;2022-07-01T10:45:42;4.18;;;1.45;;
35522;SDS011;61478;50.820;4.330;2022-07-01T10:48:21;4.28;;;1.95;;
35522;SDS011;61478;50.820;4.330;2022-07-01T10:50:48;5.57;;;1.55;;
35522;SDS011;61478;50.820;4.330;2022-07-01T10:53:15;5.60;;;1.65;;
35522;SDS011;61478;50.820;4.330;2022-07-01T10:55:49;11.00;;;1.67;;
35522;SDS011;61478;50.820;4.330;2022-07-01T10:58:17;9.18;;;1.63;;
35522;SDS011;61478;50.820;4.330;2022-07-01T11:00:45;8.43;;;1.25;;
35522;SDS011;61478;50.820;4.330;2022-07-01T11:03:13;9.52;;;1.83;;
35522;SDS011;61478;50.820;4.330;2022-07-01T11:05:48;4.20;;;1.50;;
35522;SDS011;61478;50.820;4.330;2022-07-01T11:08:15;3.22;;;1.05;;
35522;SDS011;61478;50.820;4.330;2022-07-01T11:10:42;7.07;;;1.42;;
35522;SDS011;61478;50.820;4.330;2022-07-01T11:13:08;4.63;;;1.58;;
35522;SDS011;61478;50.820;4.330;2022-07-01T11:15:39;7.93;;;0.93;;
35522;SDS011;61478;50.820;4.330;2022-07-01T11:18:06;6.97;;;1.30;;
35522;SDS011;61478;50.820;4.330;2022-07-01T11:20:33;6.13;;;1.58;;
35522;SDS011;61478;50.820;4.330;2022-07-01T11:22:59;4.15;;;1.65;;
35522;SDS011;61478;50.820;4.330;2022-07-01T11:25:25;11.68;;;1.83;;
35522;SDS011;61478;50.820;4.330;2022-07-01T11:27:52;6.20;;;2.58;;
35522;SDS011;61478;50.820;4.330;2022-07-01T11:30:19;4.25;;;2.40;;
35522;SDS011;61478;50.820;4.330;2022-07-01T11:32:47;4.93;;;1.33;;
35522;SDS011;61478;50.820;4.330;2022-07-01T11:35:28;4.78;;;1.25;;
35522;SDS011;61478;50.820;4.330;2022-07-01T11:38:19;4.65;;;2.30;;
35522;SDS011;61478;50.820;4.330;2022-07-01T11:41:06;5.43;;;1.65;;
35522;SDS011;61478;50.820;4.330;2022-07-01T11:43:38;4.93;;;1.83;;
35522;SDS011;61478;50.820;4.330;2022-07-01T11:46:05;5.45;;;1.50;;
35522;SDS011;61478;50.820;4.330;2022-07-01T11:48:39;3.85;;;1.20;;
35522;SDS011;61478;50.820;4.330;2022-07-01T11:51:15;3.42;;;0.93;;
35522;SDS011;61478;50.820;4.330;2022-07-01T11:53:43;5.60;;;1.63;;
35522;SDS011;61478;50.820;4.330;2022-07-01T11:56:37;1.48;;;0.80;;
35522;SDS011;61478;50.820;4.330;2022-07-01T11:59:04;3.25;;;1.10;;
35522;SDS011;61478;50.820;4.330;2022-07-01T12:01:31;2.03;;;1.00;;
35522;SDS011;61478;50.820;4.330;2022-07-01T12:03:58;4.00;;;1.10;;
35522;SDS011;61478;50.820;4.330;2022-07-01T12:06:29;1.92;;;0.80;;
35522;SDS011;61478;50.820;4.330;2022-07-01T12:08:56;6.30;;;0.90;;
35522;SDS011;61478;50.820;4.330;2022-07-01T12:11:22;6.53;;;0.95;;
35522;SDS011;61478;50.820;4.330;2022-07-01T12:13:50;1.40;;;0.80;;
35522;SDS011;61478;50.820;4.330;2022-07-01T12:16:17;4.28;;;1.10;;
35522;SDS011;61478;50.820;4.330;2022-07-01T12:18:52;2.83;;;0.70;;
35522;SDS011;61478;50.820;4.330;2022-07-01T12:21:20;2.15;;;0.85;;
35522;SDS011;61478;50.820;4.330;2022-07-01T12:24:07;3.80;;;0.98;;
35522;SDS011;61478;50.820;4.330;2022-07-01T12:27:19;8.48;;;0.93;;
35522;SDS011;61478;50.820;4.330;2022-07-01T12:29:31;3.55;;;0.90;;
35522;SDS011;61478;50.820;4.330;2022-07-01T12:32:37;14.15;;;3.70;;
35522;SDS011;61478;50.820;4.330;2022-07-01T12:35:04;11.07;;;1.25;;
35522;SDS011;61478;50.820;4.330;2022-07-01T12:37:51;7.53;;;1.33;;
35522;SDS011;61478;50.820;4.330;2022-07-01T12:40:21;6.82;;;1.23;;
35522;SDS011;61478;50.820;4.330;2022-07-01T12:42:48;4.60;;;1.55;;
35522;SDS011;61478;50.820;4.330;2022-07-01T12:45:15;6.05;;;2.38;;
35522;SDS011;61478;50.820;4.330;2022-07-01T12:47:46;8.02;;;3.92;;
35522;SDS011;61478;50.820;4.330;2022-07-01T12:58:04;4.85;;;1.42;;
35522;SDS011;61478;50.820;4.330;2022-07-01T13:00:34;5.13;;;1.70;;
35522;SDS011;61478;50.820;4.330;2022-07-01T13:03:01;2.53;;;0.85;;
35522;SDS011;61478;50.820;4.330;2022-07-01T13:05:29;9.30;;;1.48;;
35522;SDS011;61478;50.820;4.330;2022-07-01T13:07:57;5.30;;;1.00;;
35522;SDS011;61478;50.820;4.330;2022-07-01T13:10:23;3.30;;;0.85;;
35522;SDS011;61478;50.820;4.330;2022-07-01T13:12:49;3.90;;;0.75;;
35522;SDS011;61478;50.820;4.330;2022-07-01T13:15:16;2.17;;;0.70;;
35522;SDS011;61478;50.820;4.330;2022-07-01T13:17:43;5.82;;;1.15;;
35522;SDS011;61478;50.820;4.330;2022-07-01T13:20:09;4.50;;;1.50;;
35522;SDS011;61478;50.820;4.330;2022-07-01T13:22:36;4.95;;;1.30;;
35522;SDS011;61478;50.820;4.330;2022-07-01T13:25:02;6.22;;;1.45;;
35522;SDS011;61478;50.820;4.330;2022-07-01T13:27:29;4.30;;;1.00;;
35522;SDS011;61478;50.820;4.330;2022-07-01T13:29:55;1.95;;;0.70;;
35522;SDS011;61478;50.820;4.330;2022-07-01T13:32:21;5.40;;;1.30;;
35522;SDS011;61478;50.820;4.330;2022-07-01T13:34:48;9.23;;;1.77;;
35522;SDS011;61478;50.820;4.330;2022-07-01T13:37:14;6.25;;;1.25;;
35522;SDS011;61478;50.820;4.330;2022-07-01T13:39:40;5.47;;;1.23;;
35522;SDS011;61478;50.820;4.330;2022-07-01T13:42:06;3.88;;;1.02;;
35522;SDS011;61478;50.820;4.330;2022-07-01T13:44:31;4.65;;;1.08;;
35522;SDS011;61478;50.820;4.330;2022-07-01T13:46:58;6.55;;;0.90;;
35522;SDS011;61478;50.820;4.330;2022-07-01T13:49:25;6.55;;;0.93;;
35522;SDS011;61478;50.820;4.330;2022-07-01T13:51:51;6.50;;;1.15;;
35522;SDS011;61478;50.820;4.330;2022-07-01T13:54:17;2.38;;;0.95;;
35522;SDS011;61478;50.820;4.330;2022-07-01T13:56:44;5.63;;;1.05;;
35522;SDS011;61478;50.820;4.330;2022-07-01T13:59:10;2.50;;;1.10;;
35522;SDS011;61478;50.820;4.330;2022-07-01T14:01:37;4.90;;;1.10;;
35522;SDS011;61478;50.820;4.330;2022-07-01T14:04:04;4.22;;;1.30;;
35522;SDS011;61478;50.820;4.330;2022-07-01T14:06:30;7.15;;;1.58;;
35522;SDS011;61478;50.820;4.330;2022-07-01T14:08:56;5.38;;;1.25;;
35522;SDS011;61478;50.820;4.330;2022-07-01T14:11:22;3.05;;;1.00;;
35522;SDS011;61478;50.820;4.330;2022-07-01T14:13:48;8.27;;;1.92;;
35522;SDS011;61478;50.820;4.330;2022-07-01T14:16:13;3.00;;;1.40;;
35522;SDS011;61478;50.820;4.330;2022-07-01T14:18:39;3.35;;;1.55;;
35522;SDS011;61478;50.820;4.330;2022-07-01T14:21:05;9.00;;;1.15;;
35522;SDS011;61478;50.820;4.330;2022-07-01T14:23:32;7.70;;;1.70;;
35522;SDS011;61478;50.820;4.330;2022-07-01T14:25:58;5.65;;;1.05;;
35522;SDS011;61478;50.820;4.330;2022-07-01T14:28:25;3.03;;;1.15;;
35522;SDS011;61478;50.820;4.330;2022-07-01T14:30:51;3.92;;;0.68;;
35522;SDS011;61478;50.820;4.330;2022-07-01T14:33:19;2.60;;;0.77;;
35522;SDS011;61478;50.820;4.330;2022-07-01T14:35:46;3.42;;;1.05;;
35522;SDS011;61478;50.820;4.330;2022-07-01T14:38:12;3.72;;;1.10;;
35522;SDS011;61478;50.820;4.330;2022-07-01T14:40:39;5.57;;;0.88;;
35522;SDS011;61478;50.820;4.330;2022-07-01T14:43:05;6.10;;;1.27;;
35522;SDS011;61478;50.820;4.330;2022-07-01T14:45:31;7.00;;;1.80;;
35522;SDS011;61478;50.820;4.330;2022-07-01T14:47:57;7.07;;;1.05;;
35522;SDS011;61478;50.820;4.330;2022-07-01T14:50:23;5.55;;;1.00;;
35522;SDS011;61478;50.820;4.330;2022-07-01T14:52:49;4.65;;;1.00;;
35522;SDS011;61478;50.820;4.330;2022-07-01T14:55:15;6.65;;;1.50;;
35522;SDS011;61478;50.820;4.330;2022-07-01T14:57:41;4.60;;;1.55;;
35522;SDS011;61478;50.820;4.330;2022-07-01T15:00:07;4.00;;;1.55;;
35522;SDS011;61478;50.820;4.330;2022-07-01T15:02:33;3.42;;;0.93;;
35522;SDS011;61478;50.820;4.330;2022-07-01T15:04:59;5.75;;;1.40;;
35522;SDS011;61478;50.820;4.330;2022-07-01T15:07:25;16.83;;;3.17;;